BIENTÔT MET'MAP
version 2.0 !

Prévue avant fin octobre,
la nouvelle version sera
plus belle, plus complète
et hébergée sur un serveur
3 fois plus puissant...
et toujours gratuite !


Pas compatible ?
Essayez la version Mobile !

SE CONNECTER : | S'inscrire | Disclaimer | Découvrir Orbifly |
Code OACI :

TAF - LKKV Karlovy Vary - 23 Feb 2020 21:16 UTC - Data Source NOAA   


- Altitude de l'aérodrome : 1989 ft
- Code IATA : KLV
- Pas de NOTAMs connus.


LKKV - Karlovy Vary

Dernier METAR connu : 2015/08/11 08:00 LKKV 110800Z VRB03KT CAVOK 28/10 Q1017
TAF TAF LKKV
Valide du 23 à 18h jusqu'au 25 à 00h UTC


231700Z 2318/2500 25018KT 7000 -RA BKN012
TEMPO 2318/2320 24022G44KT 4000 RA OVC007
FM232000 31016G34KT 9999 BKN017
TEMPO 2320/2322 30022G44KT 3000 SHRA BKN007TCU
BECMG 2322/2401 30013KT
BECMG 2405/2407 23006KT
BECMG 2411/2413 9999 OVC011
TEMPO 2413/2420 6000 -RA BKN006
TEMPO 2420/2500 23014G30KT 6000 -RA BKN008

Source NOAA


MET'MAP, la Météo Aéronautique d'un coup d'oeil ! - Copyright ORBIFLY Décembre 2007

Développement & Programmation : Alexandra Zaïnal
Co-Développement : Marc-Olivier Méhu
Soutien technique & logistique : Manuel Goepfert
Conception & Financement : Baudouin d'Aumeries